createdAt,value
2022-12-05T00:00:33.621Z,18.87
2022-12-05T00:03:04.803Z,18.63
2022-12-05T00:05:31.768Z,20.67
2022-12-05T00:07:58.344Z,17.73
2022-12-05T00:10:24.851Z,19.27
2022-12-05T00:12:51.535Z,18.83
2022-12-05T00:15:18.130Z,18.20
2022-12-05T00:17:44.632Z,18.93
2022-12-05T00:20:11.395Z,19.23
2022-12-05T00:22:38.982Z,18.27
2022-12-05T00:25:08.852Z,19.17
2022-12-05T00:27:35.377Z,18.83
2022-12-05T00:30:02.368Z,19.57
2022-12-05T00:32:29.876Z,20.13
2022-12-05T00:34:56.726Z,20.20
2022-12-05T00:37:23.901Z,21.17
2022-12-05T00:39:50.591Z,20.70
2022-12-05T00:42:17.653Z,19.30
2022-12-05T00:44:44.185Z,19.23
2022-12-05T00:47:10.695Z,19.43
2022-12-05T00:49:37.165Z,17.77
2022-12-05T00:52:04.761Z,17.70
2022-12-05T00:54:31.233Z,20.83
2022-12-05T00:56:57.733Z,18.67
2022-12-05T00:59:24.192Z,18.83
2022-12-05T01:01:51.504Z,19.57
2022-12-05T01:04:23.700Z,18.33
2022-12-05T01:06:50.776Z,18.67
2022-12-05T01:09:20.049Z,19.43
2022-12-05T01:11:46.656Z,19.97
2022-12-05T01:14:14.891Z,17.60
2022-12-05T01:16:42.987Z,20.37
2022-12-05T01:19:14.251Z,17.80
2022-12-05T01:21:41.654Z,19.40
2022-12-05T01:24:08.992Z,18.00
2022-12-05T01:26:35.588Z,20.23
2022-12-05T01:29:02.129Z,18.77
2022-12-05T01:31:33.792Z,18.13
2022-12-05T01:34:01.911Z,20.50
2022-12-05T01:36:28.844Z,18.73
2022-12-05T01:38:56.157Z,20.67
2022-12-05T01:41:25.754Z,18.40
2022-12-05T01:44:05.820Z,18.33
2022-12-05T01:46:36.599Z,18.50
2022-12-05T01:49:17.259Z,19.73
2022-12-05T01:51:55.801Z,20.70
2022-12-05T01:54:23.292Z,19.43
2022-12-05T01:56:58.852Z,19.90
2022-12-05T01:59:27.197Z,18.00
2022-12-05T02:01:54.346Z,18.50
2022-12-05T02:04:21.003Z,19.33
2022-12-05T02:06:47.637Z,18.33
2022-12-05T02:09:14.357Z,18.83
2022-12-05T02:11:58.327Z,17.20
2022-12-05T02:14:51.695Z,18.47
2022-12-05T02:17:32.567Z,18.50
2022-12-05T02:20:02.105Z,17.80
2022-12-05T02:22:42.969Z,18.17
2022-12-05T02:25:18.774Z,20.40
2022-12-05T02:27:51.253Z,18.50
2022-12-05T02:30:20.271Z,18.30
2022-12-05T02:32:49.837Z,17.27
2022-12-05T02:35:28.356Z,19.17
2022-12-05T02:38:23.825Z,18.53
2022-12-05T02:40:56.365Z,18.47
2022-12-05T02:43:30.195Z,17.77
2022-12-05T02:46:01.026Z,17.77
2022-12-05T02:48:28.946Z,17.47
2022-12-05T02:50:57.275Z,17.60
2022-12-05T02:53:25.326Z,17.60
2022-12-05T02:55:52.086Z,20.37
2022-12-05T02:58:23.201Z,17.60
2022-12-05T03:00:51.023Z,17.50
2022-12-05T03:03:19.973Z,17.87
2022-12-05T03:05:57.015Z,18.00
2022-12-05T03:08:26.209Z,18.77
2022-12-05T03:10:53.516Z,17.90
2022-12-05T03:13:34.386Z,18.53
2022-12-05T03:16:04.478Z,18.93
2022-12-05T03:18:42.385Z,17.97
2022-12-05T03:21:16.281Z,16.90
2022-12-05T03:23:47.524Z,19.40
2022-12-05T03:26:37.412Z,19.77
2022-12-05T03:29:10.055Z,18.27
2022-12-05T03:32:11.820Z,17.30
2022-12-05T03:34:47.495Z,17.93
2022-12-05T03:37:22.299Z,19.17
2022-12-05T03:39:55.795Z,17.47
2022-12-05T03:42:29.307Z,15.97
2022-12-05T03:45:14.581Z,16.40
2022-12-05T03:47:45.495Z,17.20
2022-12-05T03:50:30.556Z,16.20
2022-12-05T03:53:23.455Z,17.57
2022-12-05T03:55:57.332Z,17.60
2022-12-05T03:58:47.683Z,18.03
2022-12-05T04:01:16.025Z,16.03
2022-12-05T04:03:46.706Z,15.50
2022-12-05T04:06:24.851Z,18.00
2022-12-05T04:08:54.428Z,16.77
2022-12-05T04:11:23.288Z,17.27
2022-12-05T04:14:03.164Z,15.97
2022-12-05T04:17:00.638Z,16.60
2022-12-05T04:19:29.461Z,17.40
2022-12-05T04:21:57.156Z,17.07
2022-12-05T04:24:45.245Z,16.23
2022-12-05T04:27:28.293Z,16.27
2022-12-05T04:30:03.194Z,16.97
2022-12-05T04:32:37.250Z,16.50
2022-12-05T04:35:07.411Z,16.13
2022-12-05T04:37:36.345Z,18.67
2022-12-05T04:40:10.543Z,18.27
2022-12-05T04:42:38.137Z,16.60
2022-12-05T04:45:10.716Z,18.90
2022-12-05T04:47:43.953Z,17.90
2022-12-05T04:50:12.312Z,18.30
2022-12-05T04:52:39.479Z,17.20
2022-12-05T04:58:47.171Z,17.57
2022-12-05T05:01:16.710Z,17.97
2022-12-05T05:03:48.167Z,18.20
2022-12-05T05:06:14.974Z,18.90
2022-12-05T05:08:50.394Z,17.87
2022-12-05T05:11:22.210Z,18.87
2022-12-05T05:13:49.167Z,16.30
2022-12-05T05:16:18.279Z,17.73
2022-12-05T05:18:48.938Z,16.67
2022-12-05T05:21:20.577Z,16.70
2022-12-05T05:23:47.629Z,17.43
2022-12-05T05:26:14.317Z,17.17
2022-12-05T05:28:40.968Z,17.57
2022-12-05T05:31:08.209Z,16.90
2022-12-05T05:33:35.261Z,17.60
2022-12-05T05:36:06.488Z,15.97
2022-12-05T05:38:41.181Z,16.70
2022-12-05T05:41:13.121Z,15.43
2022-12-05T05:43:40.272Z,15.47
2022-12-05T05:46:06.779Z,16.27
2022-12-05T05:48:33.318Z,14.80
2022-12-05T05:51:01.094Z,17.67
2022-12-05T05:53:27.608Z,17.60
2022-12-05T05:55:54.100Z,17.37
2022-12-05T05:58:20.657Z,18.80
2022-12-05T06:00:47.211Z,16.40
2022-12-05T06:03:13.829Z,16.20
2022-12-05T06:05:40.416Z,16.53
2022-12-05T06:08:06.961Z,18.50
2022-12-05T06:10:33.497Z,17.00
2022-12-05T06:13:00.106Z,17.10
2022-12-05T06:15:26.563Z,16.83
2022-12-05T06:17:53.155Z,18.33
2022-12-05T06:20:19.658Z,18.97
2022-12-05T06:22:46.359Z,17.57
2022-12-05T06:25:12.867Z,16.73
2022-12-05T06:27:39.333Z,17.87
2022-12-05T06:30:06.573Z,18.33
2022-12-05T06:32:33.147Z,16.43
2022-12-05T06:34:59.907Z,17.80
2022-12-05T06:37:26.399Z,18.73
2022-12-05T06:39:53.101Z,18.60
2022-12-05T06:42:19.741Z,18.57
2022-12-05T06:44:46.277Z,18.33
2022-12-05T06:47:12.743Z,18.60
2022-12-05T06:49:39.261Z,20.03
2022-12-05T06:52:05.860Z,18.93
2022-12-05T06:54:32.445Z,20.67
2022-12-05T06:56:58.907Z,21.30
2022-12-05T06:59:25.577Z,20.80
2022-12-05T07:01:52.207Z,21.80
2022-12-05T07:04:23.973Z,19.40
2022-12-05T07:06:51.760Z,20.07
2022-12-05T07:09:20.362Z,18.63
2022-12-05T07:11:50.648Z,20.37
2022-12-05T07:14:38.940Z,20.20
2022-12-05T07:17:04.417Z,19.33
2022-12-05T07:19:30.968Z,23.13
2022-12-05T07:21:57.498Z,18.80
2022-12-05T07:24:24.119Z,19.30
2022-12-05T07:26:50.579Z,16.53
2022-12-05T07:29:17.185Z,18.80
2022-12-05T07:31:43.711Z,17.90
2022-12-05T07:34:10.218Z,17.63
2022-12-05T07:36:36.728Z,18.67
2022-12-05T07:39:04.151Z,18.80
2022-12-05T07:41:32.724Z,18.53
2022-12-05T07:44:00.226Z,17.23
2022-12-05T07:46:28.141Z,18.47
2022-12-05T07:48:55.122Z,17.90
2022-12-05T07:51:22.058Z,17.67
2022-12-05T07:53:48.780Z,19.57
2022-12-05T07:56:17.484Z,19.53
2022-12-05T07:58:45.200Z,18.70
2022-12-05T08:01:13.059Z,17.50
2022-12-05T08:03:39.637Z,18.50
2022-12-05T08:06:08.972Z,17.93
2022-12-05T08:08:35.479Z,19.37
2022-12-05T08:11:06.860Z,18.80
2022-12-05T08:13:34.051Z,18.70
2022-12-05T08:16:04.905Z,19.20
2022-12-05T08:18:31.796Z,20.10
2022-12-05T08:21:05.807Z,21.23
2022-12-05T08:23:33.218Z,24.30
2022-12-05T08:26:14.517Z,27.23
2022-12-05T08:28:41.849Z,23.90
2022-12-05T08:31:15.384Z,26.70
2022-12-05T08:33:43.017Z,31.30
2022-12-05T08:36:11.912Z,23.90
2022-12-05T08:38:38.485Z,18.60
2022-12-05T08:41:08.068Z,20.10
2022-12-05T08:43:34.799Z,21.57
2022-12-05T08:46:01.593Z,17.43
2022-12-05T08:48:29.806Z,22.50
2022-12-05T08:50:57.210Z,22.17
2022-12-05T08:53:23.788Z,23.67
2022-12-05T08:55:50.386Z,21.90
2022-12-05T08:58:17.007Z,20.90
2022-12-05T09:00:43.617Z,21.20
2022-12-05T09:03:11.581Z,21.40
2022-12-05T09:05:38.537Z,20.60
2022-12-05T09:08:05.278Z,19.67
2022-12-05T09:10:32.240Z,19.87
2022-12-05T09:13:08.780Z,21.97
2022-12-05T09:15:38.730Z,21.10
2022-12-05T09:18:09.073Z,19.77
2022-12-05T09:20:41.465Z,18.17
2022-12-05T09:23:11.625Z,18.50
2022-12-05T09:25:41.369Z,20.13
2022-12-05T09:28:07.827Z,20.93
2022-12-05T09:30:34.280Z,22.13
2022-12-05T09:33:00.743Z,22.80
2022-12-05T09:35:39.990Z,19.60
2022-12-05T09:38:06.455Z,20.77
2022-12-05T09:40:32.962Z,21.20
2022-12-05T09:43:06.054Z,20.63
2022-12-05T09:45:37.810Z,20.27
2022-12-05T09:48:12.510Z,18.80
2022-12-05T09:50:45.758Z,20.20
2022-12-05T09:53:30.660Z,18.03
2022-12-05T09:56:09.501Z,17.53
2022-12-05T09:58:46.443Z,17.17
2022-12-05T10:01:42.487Z,18.17
2022-12-05T10:04:24.338Z,15.70
2022-12-05T10:07:02.192Z,18.23
2022-12-05T10:09:50.702Z,18.60
2022-12-05T10:12:36.919Z,17.30
2022-12-05T10:15:23.533Z,18.00
2022-12-05T10:17:57.791Z,19.83
2022-12-05T10:20:32.428Z,18.80
2022-12-05T10:23:55.384Z,24.60
2022-12-05T10:26:12.857Z,24.47
2022-12-05T10:28:49.777Z,23.17
2022-12-05T10:31:19.685Z,20.90
2022-12-05T10:33:50.677Z,18.63
2022-12-05T10:36:17.264Z,18.00
2022-12-05T10:38:45.311Z,19.27
2022-12-05T10:41:14.295Z,19.03
2022-12-05T10:43:43.893Z,19.07
2022-12-05T10:46:16.810Z,19.30
2022-12-05T10:48:44.460Z,19.10
2022-12-05T10:51:16.972Z,19.50
2022-12-05T10:53:50.667Z,17.93
2022-12-05T10:56:37.484Z,18.10
2022-12-05T10:59:04.532Z,17.43
2022-12-05T11:01:32.730Z,19.27
2022-12-05T11:04:01.794Z,17.77
2022-12-05T11:06:31.462Z,17.80
2022-12-05T11:09:19.854Z,17.00
2022-12-05T11:11:58.562Z,15.80
2022-12-05T11:14:26.256Z,18.00
2022-12-05T11:17:00.941Z,18.23
2022-12-05T11:19:38.326Z,21.10
2022-12-05T11:22:07.843Z,20.80
2022-12-05T11:24:36.912Z,18.13
2022-12-05T11:27:15.586Z,19.03
2022-12-05T11:29:43.520Z,20.33
2022-12-05T11:32:21.860Z,20.63
2022-12-05T11:35:07.092Z,22.37
2022-12-05T11:37:56.027Z,21.83
2022-12-05T11:40:31.739Z,20.50
2022-12-05T11:43:15.777Z,19.70
2022-12-05T11:45:52.505Z,20.10
2022-12-05T11:48:33.925Z,21.93
2022-12-05T11:51:15.097Z,30.27
2022-12-05T11:54:03.301Z,21.07
2022-12-05T11:56:42.312Z,27.40
2022-12-05T11:59:24.422Z,21.87
2022-12-05T12:02:11.543Z,21.50
2022-12-05T12:05:05.576Z,20.90
2022-12-05T12:07:54.367Z,21.40
2022-12-05T12:10:40.472Z,20.50
2022-12-05T12:13:19.203Z,18.67
2022-12-05T12:16:08.533Z,22.73
2022-12-05T12:18:47.401Z,19.10
2022-12-05T12:21:38.788Z,20.27
2022-12-05T12:24:18.948Z,19.00
2022-12-05T12:27:07.576Z,19.80
2022-12-05T12:29:56.149Z,19.03
2022-12-05T12:32:25.497Z,19.00
2022-12-05T12:35:02.302Z,18.60
2022-12-05T12:38:01.212Z,19.00
2022-12-05T12:40:33.287Z,19.60
2022-12-05T12:43:44.941Z,17.60
2022-12-05T12:46:39.959Z,17.47
2022-12-05T12:49:18.494Z,17.00
2022-12-05T12:52:01.367Z,17.53
2022-12-05T12:55:02.074Z,20.83
2022-12-05T12:57:52.727Z,19.53
2022-12-05T13:00:31.019Z,19.70
2022-12-05T13:03:13.291Z,19.27
2022-12-05T13:05:46.605Z,21.23
2022-12-05T13:08:22.373Z,20.90
2022-12-05T13:10:49.358Z,23.23
2022-12-05T13:13:25.708Z,22.90
2022-12-05T13:15:54.852Z,22.27
2022-12-05T13:18:24.095Z,20.17
2022-12-05T13:20:52.899Z,27.75
2022-12-05T13:23:23.007Z,18.73
2022-12-05T13:25:50.662Z,19.83
2022-12-05T13:28:42.177Z,17.87
2022-12-05T13:31:09.736Z,18.00
2022-12-05T13:33:56.475Z,16.17
2022-12-05T13:36:42.206Z,15.37
2022-12-05T13:39:33.429Z,18.30
2022-12-05T13:42:13.359Z,18.07
2022-12-05T13:44:57.786Z,17.77
2022-12-05T13:47:35.575Z,19.10
2022-12-05T13:50:20.169Z,18.43
2022-12-05T13:52:50.113Z,18.80
2022-12-05T13:55:36.915Z,18.80
2022-12-05T13:58:23.396Z,17.70
2022-12-05T14:00:53.178Z,20.17
2022-12-05T14:03:35.126Z,19.00
2022-12-05T14:06:01.801Z,17.10
2022-12-05T14:08:31.509Z,17.70
2022-12-05T14:10:58.102Z,18.33
2022-12-05T14:13:25.321Z,18.80
2022-12-05T14:15:53.811Z,19.30
2022-12-05T14:18:47.087Z,17.13
2022-12-05T14:22:00.696Z,18.77
2022-12-05T14:24:40.252Z,16.70
2022-12-05T14:27:32.518Z,18.47
2022-12-05T14:30:05.612Z,17.57
2022-12-05T14:32:42.317Z,18.67
2022-12-05T14:35:15.697Z,19.50
2022-12-05T14:37:53.809Z,18.40
2022-12-05T14:40:23.443Z,18.10
2022-12-05T14:43:00.081Z,18.30
2022-12-05T14:45:30.904Z,17.47
2022-12-05T14:47:59.796Z,18.27
2022-12-05T14:50:46.013Z,17.57
2022-12-05T14:53:21.471Z,18.83
2022-12-05T14:55:50.698Z,18.60
2022-12-05T14:58:20.290Z,18.57
2022-12-05T15:00:55.133Z,19.73
2022-12-05T15:03:30.316Z,17.77
2022-12-05T15:06:03.285Z,19.00
2022-12-05T15:08:33.591Z,19.07
2022-12-05T15:11:00.552Z,19.23
2022-12-05T15:13:30.524Z,22.07
2022-12-05T15:16:16.671Z,19.90
2022-12-05T15:18:52.086Z,19.50
2022-12-05T15:21:38.378Z,19.80
2022-12-05T15:24:11.265Z,19.97
2022-12-05T15:26:49.606Z,20.63
2022-12-05T15:29:28.746Z,21.10
2022-12-05T15:32:16.512Z,21.70
2022-12-05T15:35:02.543Z,18.47
2022-12-05T15:37:45.923Z,19.97
2022-12-05T15:40:17.599Z,20.27
2022-12-05T15:42:55.667Z,19.67
2022-12-05T15:45:24.119Z,20.53
2022-12-05T15:48:07.292Z,21.23
2022-12-05T15:50:35.848Z,21.17
2022-12-05T15:53:11.417Z,18.80
2022-12-05T15:56:01.971Z,19.37
2022-12-05T15:58:36.987Z,20.00
2022-12-05T16:01:09.660Z,18.80
2022-12-05T16:03:49.716Z,20.37
2022-12-05T16:06:23.873Z,17.90
2022-12-05T16:08:50.912Z,18.50
2022-12-05T16:11:17.980Z,18.63
2022-12-05T16:13:52.573Z,18.60
2022-12-05T16:16:21.432Z,18.30
2022-12-05T16:18:59.599Z,18.53
2022-12-05T16:21:39.283Z,16.73
2022-12-05T16:24:11.721Z,18.97
2022-12-05T16:26:39.749Z,19.40
2022-12-05T16:29:08.829Z,19.13
2022-12-05T16:31:36.268Z,20.50
2022-12-05T16:34:07.790Z,18.23
2022-12-05T16:36:35.038Z,18.13
2022-12-05T16:39:03.994Z,17.67
2022-12-05T16:41:38.101Z,17.00
2022-12-05T16:44:11.502Z,16.43
2022-12-05T16:46:43.957Z,15.33
2022-12-05T16:49:20.008Z,16.50
2022-12-05T16:51:59.028Z,16.70
2022-12-05T16:54:25.527Z,14.03
2022-12-05T16:56:52.144Z,16.07
2022-12-05T16:59:24.759Z,15.40
2022-12-05T17:01:51.540Z,15.53
2022-12-05T17:04:18.711Z,15.37
2022-12-05T17:06:45.370Z,17.10
2022-12-05T17:09:12.662Z,14.97
2022-12-05T17:11:41.152Z,17.20
2022-12-05T17:14:11.863Z,16.50
2022-12-05T17:16:38.519Z,18.00
2022-12-05T17:19:05.438Z,16.17
2022-12-05T17:21:33.542Z,15.70
2022-12-05T17:24:01.108Z,15.80
2022-12-05T17:26:27.621Z,15.57
2022-12-05T17:28:54.139Z,16.33
2022-12-05T17:31:22.822Z,16.33
2022-12-05T17:33:51.129Z,16.57
2022-12-05T17:36:17.803Z,17.27
2022-12-05T17:38:45.603Z,16.10
2022-12-05T17:41:20.278Z,15.90
2022-12-05T17:43:47.284Z,15.83
2022-12-05T17:46:20.211Z,16.20
2022-12-05T17:48:47.559Z,15.30
2022-12-05T17:51:14.812Z,15.83
2022-12-05T17:53:42.347Z,16.00
2022-12-05T17:56:09.363Z,17.00
2022-12-05T17:58:35.857Z,16.70
2022-12-05T18:01:02.629Z,16.73
2022-12-05T18:03:29.364Z,15.47
2022-12-05T18:05:56.004Z,15.83
2022-12-05T18:08:24.029Z,15.87
2022-12-05T18:10:51.149Z,16.50
2022-12-05T18:13:18.286Z,14.80
2022-12-05T18:15:47.837Z,16.70
2022-12-05T18:18:16.414Z,15.40
2022-12-05T18:20:43.674Z,15.90
2022-12-05T18:23:10.726Z,16.10
2022-12-05T18:25:37.322Z,14.90
2022-12-05T18:28:03.846Z,15.00
2022-12-05T18:30:30.388Z,15.90
2022-12-05T18:32:56.944Z,15.00
2022-12-05T18:35:40.551Z,13.90
2022-12-05T18:38:08.819Z,15.23
2022-12-05T18:40:35.354Z,15.10
2022-12-05T18:43:02.053Z,15.90
2022-12-05T18:45:28.637Z,14.20
2022-12-05T18:48:09.549Z,15.20
2022-12-05T18:50:41.817Z,14.80
2022-12-05T18:53:09.402Z,15.13
2022-12-05T18:55:58.246Z,15.03
2022-12-05T18:58:22.457Z,15.20
2022-12-05T19:00:49.025Z,14.60
2022-12-05T19:03:15.742Z,15.77
2022-12-05T19:05:43.300Z,14.27
2022-12-05T19:08:09.986Z,15.53
2022-12-05T19:10:36.774Z,14.03
2022-12-05T19:13:03.291Z,16.13
2022-12-05T19:15:30.347Z,16.63
2022-12-05T19:17:56.855Z,15.17
2022-12-05T19:20:23.377Z,14.30
2022-12-05T19:22:49.902Z,15.10
2022-12-05T19:25:16.621Z,13.93
2022-12-05T19:27:43.135Z,14.90
2022-12-05T19:30:10.809Z,14.80
2022-12-05T19:32:40.395Z,14.73
2022-12-05T19:35:07.947Z,13.63
2022-12-05T19:37:35.457Z,14.57
2022-12-05T19:40:01.985Z,13.90
2022-12-05T19:42:29.549Z,13.93
2022-12-05T19:44:56.192Z,13.60
2022-12-05T19:47:22.695Z,13.20
2022-12-05T19:49:49.336Z,14.17
2022-12-05T19:52:17.966Z,13.80
2022-12-05T19:54:45.088Z,12.87
2022-12-05T19:57:11.983Z,13.50
2022-12-05T19:59:38.510Z,14.07
2022-12-05T20:02:05.022Z,15.23
2022-12-05T20:04:31.806Z,14.03
2022-12-05T20:09:38.876Z,13.20
2022-12-05T20:12:05.488Z,15.07
2022-12-05T20:14:33.709Z,14.03
2022-12-05T20:17:00.227Z,14.37
2022-12-05T20:19:26.745Z,14.20
2022-12-05T20:21:55.408Z,14.70
2022-12-05T20:24:22.072Z,14.93
2022-12-05T20:26:48.590Z,15.53
2022-12-05T20:29:15.264Z,15.40
2022-12-05T20:31:42.751Z,15.37
2022-12-05T20:34:10.796Z,13.80
2022-12-05T20:36:37.472Z,14.50
2022-12-05T20:39:06.541Z,14.70
2022-12-05T20:41:33.675Z,15.10
2022-12-05T20:44:02.287Z,15.70
2022-12-05T20:46:29.417Z,14.43
2022-12-05T20:48:58.847Z,14.50
2022-12-05T20:51:30.527Z,14.03
2022-12-05T20:54:02.173Z,15.53
2022-12-05T20:56:31.859Z,13.33
2022-12-05T20:59:00.824Z,13.70
2022-12-05T21:01:29.355Z,13.93
2022-12-05T21:03:56.701Z,13.43
2022-12-05T21:06:30.781Z,14.30
2022-12-05T21:08:58.456Z,14.30
2022-12-05T21:11:25.662Z,13.60
2022-12-05T21:13:52.634Z,13.20
2022-12-05T21:16:20.682Z,14.63
2022-12-05T21:18:47.675Z,12.73
2022-12-05T21:21:22.714Z,14.33
2022-12-05T21:23:54.430Z,14.23
2022-12-05T21:26:22.098Z,13.07
2022-12-05T21:28:48.846Z,13.63
2022-12-05T21:31:18.883Z,13.97
2022-12-05T21:33:51.223Z,13.53
2022-12-05T21:36:19.314Z,12.20
2022-12-05T21:38:49.544Z,12.40
2022-12-05T21:41:20.669Z,13.27
2022-12-05T21:43:52.443Z,13.63
2022-12-05T21:46:21.117Z,13.33
2022-12-05T21:48:47.572Z,13.77
2022-12-05T21:51:14.130Z,13.90
2022-12-05T21:53:40.652Z,12.80
2022-12-05T21:56:11.068Z,14.07
2022-12-05T21:58:42.164Z,12.60
2022-12-05T22:01:10.545Z,14.43
2022-12-05T22:03:37.075Z,13.37
2022-12-05T22:06:10.976Z,13.70
2022-12-05T22:08:38.714Z,13.73
2022-12-05T22:11:09.471Z,13.63
2022-12-05T22:13:36.721Z,14.23
2022-12-05T22:16:04.223Z,14.37
2022-12-05T22:18:31.165Z,13.83
2022-12-05T22:20:58.568Z,14.10
2022-12-05T22:23:25.174Z,14.50
2022-12-05T22:26:02.878Z,13.60
2022-12-05T22:28:29.914Z,14.63
2022-12-05T22:30:57.876Z,14.17
2022-12-05T22:33:25.350Z,14.70
2022-12-05T22:35:53.903Z,15.00
2022-12-05T22:38:20.406Z,14.80
2022-12-05T22:40:53.215Z,13.57
2022-12-05T22:43:19.917Z,13.00
2022-12-05T22:45:46.383Z,14.27
2022-12-05T22:48:12.877Z,14.40
2022-12-05T22:50:39.325Z,13.40
2022-12-05T22:53:05.807Z,13.17
2022-12-05T22:55:32.351Z,14.97
2022-12-05T22:57:59.053Z,13.50
2022-12-05T23:00:25.517Z,13.70
2022-12-05T23:02:52.868Z,14.13
2022-12-05T23:05:19.377Z,14.47
2022-12-05T23:07:45.884Z,13.73
2022-12-05T23:10:12.669Z,13.63
2022-12-05T23:12:39.308Z,14.07
2022-12-05T23:15:06.268Z,14.03
2022-12-05T23:17:33.100Z,12.03
2022-12-05T23:19:59.917Z,12.30
2022-12-05T23:22:26.569Z,14.33
2022-12-05T23:24:53.098Z,13.00
2022-12-05T23:27:19.627Z,13.20
2022-12-05T23:29:46.245Z,12.00
2022-12-05T23:32:12.914Z,13.43
2022-12-05T23:34:39.481Z,13.50
2022-12-05T23:37:05.960Z,11.83
2022-12-05T23:39:32.502Z,11.87
2022-12-05T23:41:59.444Z,12.23
2022-12-05T23:44:25.996Z,12.67
2022-12-05T23:46:52.682Z,12.47
2022-12-05T23:49:19.325Z,12.40
2022-12-05T23:51:45.791Z,12.13
2022-12-05T23:54:12.246Z,11.90
2022-12-05T23:56:38.923Z,11.50
2022-12-05T23:59:06.549Z,12.37
